sensor_id;sensor_type;location;lat;lon;timestamp;pressure;altitude;pressure_sealevel;temperature
58102;BMP280;52034;51.926;6.320;2023-03-15T00:00:05;100997.28;;;4.11
58102;BMP280;52034;51.926;6.320;2023-03-15T00:01:22;100993.69;;;4.08
58102;BMP280;52034;51.926;6.320;2023-03-15T00:02:25;100995.88;;;4.10
58102;BMP280;52034;51.926;6.320;2023-03-15T00:03:25;100994.41;;;4.09
58102;BMP280;52034;51.926;6.320;2023-03-15T00:04:27;101001.88;;;4.06
58102;BMP280;52034;51.926;6.320;2023-03-15T00:05:27;101000.41;;;4.05
58102;BMP280;52034;51.926;6.320;2023-03-15T00:06:27;101005.97;;;4.05
58102;BMP280;52034;51.926;6.320;2023-03-15T00:07:28;101010.06;;;4.04
58102;BMP280;52034;51.926;6.320;2023-03-15T00:08:28;101021.19;;;4.04
58102;BMP280;52034;51.926;6.320;2023-03-15T00:09:29;101015.47;;;4.02
58102;BMP280;52034;51.926;6.320;2023-03-15T00:10:29;101007.03;;;4.00
58102;BMP280;52034;51.926;6.320;2023-03-15T00:11:30;101018.25;;;4.02
58102;BMP280;52034;51.926;6.320;2023-03-15T00:12:30;101018.53;;;4.06
58102;BMP280;52034;51.926;6.320;2023-03-15T00:13:31;101017.81;;;4.06
58102;BMP280;52034;51.926;6.320;2023-03-15T00:14:32;101013.72;;;4.07
58102;BMP280;52034;51.926;6.320;2023-03-15T00:15:32;101016.06;;;4.10
58102;BMP280;52034;51.926;6.320;2023-03-15T00:16:32;101019.28;;;4.07
58102;BMP280;52034;51.926;6.320;2023-03-15T00:17:33;101017.94;;;4.08
58102;BMP280;52034;51.926;6.320;2023-03-15T00:18:33;101021.47;;;4.08
58102;BMP280;52034;51.926;6.320;2023-03-15T00:19:34;101022.78;;;4.07
58102;BMP280;52034;51.926;6.320;2023-03-15T00:20:36;101017.34;;;4.09
58102;BMP280;52034;51.926;6.320;2023-03-15T00:21:36;101017.47;;;4.11
58102;BMP280;52034;51.926;6.320;2023-03-15T00:22:39;101018.22;;;4.12
58102;BMP280;52034;51.926;6.320;2023-03-15T00:23:39;101022.31;;;4.11
58102;BMP280;52034;51.926;6.320;2023-03-15T00:24:39;101014.81;;;4.13
58102;BMP280;52034;51.926;6.320;2023-03-15T00:25:43;101026.69;;;4.14
58102;BMP280;52034;51.926;6.320;2023-03-15T00:26:44;101010.88;;;4.16
58102;BMP280;52034;51.926;6.320;2023-03-15T00:27:44;101013.53;;;4.14
58102;BMP280;52034;51.926;6.320;2023-03-15T00:28:44;101012.06;;;4.13
58102;BMP280;52034;51.926;6.320;2023-03-15T00:29:45;101021.28;;;4.16
58102;BMP280;52034;51.926;6.320;2023-03-15T00:30:45;101016.91;;;4.13
58102;BMP280;52034;51.926;6.320;2023-03-15T00:31:47;101015.56;;;4.14
58102;BMP280;52034;51.926;6.320;2023-03-15T00:32:47;101013.97;;;4.11
58102;BMP280;52034;51.926;6.320;2023-03-15T00:33:48;101017.34;;;4.09
58102;BMP280;52034;51.926;6.320;2023-03-15T00:34:48;101015.47;;;4.02
58102;BMP280;52034;51.926;6.320;2023-03-15T00:35:49;101009.94;;;4.02
58102;BMP280;52034;51.926;6.320;2023-03-15T00:36:52;101011.09;;;3.99
58102;BMP280;52034;51.926;6.320;2023-03-15T00:37:54;101010.22;;;3.97
58102;BMP280;52034;51.926;6.320;2023-03-15T00:38:55;101018.28;;;3.93
58102;BMP280;52034;51.926;6.320;2023-03-15T00:39:56;101016.09;;;3.91
58102;BMP280;52034;51.926;6.320;2023-03-15T00:40:56;101015.22;;;3.89
58102;BMP280;52034;51.926;6.320;2023-03-15T00:41:57;101019.22;;;3.86
58102;BMP280;52034;51.926;6.320;2023-03-15T00:42:58;101009.13;;;3.81
58102;BMP280;52034;51.926;6.320;2023-03-15T00:43:58;101011.31;;;3.82
58102;BMP280;52034;51.926;6.320;2023-03-15T00:44:58;100995.97;;;3.81
58102;BMP280;52034;51.926;6.320;2023-03-15T00:45:59;101006.19;;;3.79
58102;BMP280;52034;51.926;6.320;2023-03-15T00:47:00;101009.56;;;3.77
58102;BMP280;52034;51.926;6.320;2023-03-15T00:48:00;101015.84;;;3.78
58102;BMP280;52034;51.926;6.320;2023-03-15T00:49:00;101022.72;;;3.77
58102;BMP280;52034;51.926;6.320;2023-03-15T00:50:01;101027.41;;;3.74
58102;BMP280;52034;51.926;6.320;2023-03-15T00:51:06;101032.97;;;3.74
58102;BMP280;52034;51.926;6.320;2023-03-15T00:52:07;101039.69;;;3.71
58102;BMP280;52034;51.926;6.320;2023-03-15T00:53:08;101037.03;;;3.73
58102;BMP280;52034;51.926;6.320;2023-03-15T00:54:09;101034.13;;;3.71
58102;BMP280;52034;51.926;6.320;2023-03-15T00:55:15;101040.41;;;3.72
58102;BMP280;52034;51.926;6.320;2023-03-15T00:56:20;101031.19;;;3.69
58102;BMP280;52034;51.926;6.320;2023-03-15T00:57:21;101040.13;;;3.68
58102;BMP280;52034;51.926;6.320;2023-03-15T00:58:22;101036.00;;;3.69
58102;BMP280;52034;51.926;6.320;2023-03-15T00:59:22;101045.69;;;3.68
58102;BMP280;52034;51.926;6.320;2023-03-15T01:00:23;101042.19;;;3.67
58102;BMP280;52034;51.926;6.320;2023-03-15T01:01:26;101037.94;;;3.66
58102;BMP280;52034;51.926;6.320;2023-03-15T01:02:27;101036.50;;;3.65
58102;BMP280;52034;51.926;6.320;2023-03-15T01:03:27;101048.03;;;3.62
58102;BMP280;52034;51.926;6.320;2023-03-15T01:04:27;101045.25;;;3.62
58102;BMP280;52034;51.926;6.320;2023-03-15T01:05:28;101036.22;;;3.61
58102;BMP280;52034;51.926;6.320;2023-03-15T01:06:28;101038.25;;;3.61
58102;BMP280;52034;51.926;6.320;2023-03-15T01:07:29;101041.03;;;3.61
58102;BMP280;52034;51.926;6.320;2023-03-15T01:08:32;101040.16;;;3.58
58102;BMP280;52034;51.926;6.320;2023-03-15T01:09:33;101038.81;;;3.59
58102;BMP280;52034;51.926;6.320;2023-03-15T01:10:34;101045.13;;;3.60
58102;BMP280;52034;51.926;6.320;2023-03-15T01:11:35;101040.44;;;3.62
58102;BMP280;52034;51.926;6.320;2023-03-15T01:12:36;101041.75;;;3.61
58102;BMP280;52034;51.926;6.320;2023-03-15T01:13:37;101042.19;;;3.58
58102;BMP280;52034;51.926;6.320;2023-03-15T01:14:37;101048.19;;;3.64
58102;BMP280;52034;51.926;6.320;2023-03-15T01:15:39;101050.38;;;3.65
58102;BMP280;52034;51.926;6.320;2023-03-15T01:16:39;101046.13;;;3.64
58102;BMP280;52034;51.926;6.320;2023-03-15T01:17:43;101053.16;;;3.65
58102;BMP280;52034;51.926;6.320;2023-03-15T01:18:43;101051.81;;;3.66
58102;BMP280;52034;51.926;6.320;2023-03-15T01:19:43;101044.53;;;3.61
58102;BMP280;52034;51.926;6.320;2023-03-15T01:20:45;101045.41;;;3.64
58102;BMP280;52034;51.926;6.320;2023-03-15T01:21:45;101043.97;;;3.63
58102;BMP280;52034;51.926;6.320;2023-03-15T01:22:47;101047.44;;;3.63
58102;BMP280;52034;51.926;6.320;2023-03-15T01:23:49;101062.06;;;3.64
58102;BMP280;52034;51.926;6.320;2023-03-15T01:24:49;101062.66;;;3.62
58102;BMP280;52034;51.926;6.320;2023-03-15T01:25:52;101055.50;;;3.59
58102;BMP280;52034;51.926;6.320;2023-03-15T01:26:52;101054.31;;;3.62
58102;BMP280;52034;51.926;6.320;2023-03-15T01:27:52;101061.19;;;3.61
58102;BMP280;52034;51.926;6.320;2023-03-15T01:28:54;101064.56;;;3.60
58102;BMP280;52034;51.926;6.320;2023-03-15T01:29:54;101057.53;;;3.59
58102;BMP280;52034;51.926;6.320;2023-03-15T01:30:55;101064.41;;;3.58
58102;BMP280;52034;51.926;6.320;2023-03-15T01:31:55;101063.81;;;3.59
58102;BMP280;52034;51.926;6.320;2023-03-15T01:32:55;101067.47;;;3.62
58102;BMP280;52034;51.926;6.320;2023-03-15T01:33:57;101065.84;;;3.59
58102;BMP280;52034;51.926;6.320;2023-03-15T01:34:59;101071.28;;;3.57
58102;BMP280;52034;51.926;6.320;2023-03-15T01:36:02;101072.56;;;3.56
58102;BMP280;52034;51.926;6.320;2023-03-15T01:37:03;101078.28;;;3.58
58102;BMP280;52034;51.926;6.320;2023-03-15T01:38:10;101072.16;;;3.59
58102;BMP280;52034;51.926;6.320;2023-03-15T01:39:11;101076.25;;;3.58
58102;BMP280;52034;51.926;6.320;2023-03-15T01:40:17;101073.31;;;3.56
58102;BMP280;52034;51.926;6.320;2023-03-15T01:41:18;101073.03;;;3.52
58102;BMP280;52034;51.926;6.320;2023-03-15T01:42:19;101074.47;;;3.53
58102;BMP280;52034;51.926;6.320;2023-03-15T01:43:22;101075.94;;;3.54
58102;BMP280;52034;51.926;6.320;2023-03-15T01:45:48;101074.63;;;3.55
58102;BMP280;52034;51.926;6.320;2023-03-15T01:46:16;101073.03;;;3.52
58102;BMP280;52034;51.926;6.320;2023-03-15T01:47:23;101079.88;;;3.51
58102;BMP280;52034;51.926;6.320;2023-03-15T01:49:36;101088.19;;;3.51
58102;BMP280;52034;51.926;6.320;2023-03-15T01:50:38;101083.38;;;3.52
58102;BMP280;52034;51.926;6.320;2023-03-15T01:51:42;101074.19;;;3.49
58102;BMP280;52034;51.926;6.320;2023-03-15T01:52:45;101086.16;;;3.52
58102;BMP280;52034;51.926;6.320;2023-03-15T01:53:59;101080.59;;;3.52
58102;BMP280;52034;51.926;6.320;2023-03-15T01:55:08;101075.63;;;3.50
58102;BMP280;52034;51.926;6.320;2023-03-15T01:56:12;101085.41;;;3.51
58102;BMP280;52034;51.926;6.320;2023-03-15T01:57:30;101085.28;;;3.49
58102;BMP280;52034;51.926;6.320;2023-03-15T01:58:35;101083.38;;;3.52
58102;BMP280;52034;51.926;6.320;2023-03-15T01:59:48;101084.84;;;3.53
58102;BMP280;52034;51.926;6.320;2023-03-15T02:00:51;101088.50;;;3.55
58102;BMP280;52034;51.926;6.320;2023-03-15T02:01:52;101089.81;;;3.54
58102;BMP280;52034;51.926;6.320;2023-03-15T02:03:04;101091.41;;;3.57
58102;BMP280;52034;51.926;6.320;2023-03-15T02:04:10;101099.16;;;3.59
58102;BMP280;52034;51.926;6.320;2023-03-15T02:05:21;101097.72;;;3.58
58102;BMP280;52034;51.926;6.320;2023-03-15T02:06:23;101097.13;;;3.59
58102;BMP280;52034;51.926;6.320;2023-03-15T02:07:28;101092.44;;;3.62
58102;BMP280;52034;51.926;6.320;2023-03-15T02:08:38;101092.03;;;3.65
58102;BMP280;52034;51.926;6.320;2023-03-15T02:09:48;101094.78;;;3.65
58102;BMP280;52034;51.926;6.320;2023-03-15T02:10:52;101093.63;;;3.68
58102;BMP280;52034;51.926;6.320;2023-03-15T02:11:54;101094.31;;;3.69
58102;BMP280;52034;51.926;6.320;2023-03-15T02:12:57;101091.44;;;3.67
58102;BMP280;52034;51.926;6.320;2023-03-15T02:13:57;101093.03;;;3.70
58102;BMP280;52034;51.926;6.320;2023-03-15T02:15:00;101095.94;;;3.72
58102;BMP280;52034;51.926;6.320;2023-03-15T02:16:03;101090.97;;;3.70
58102;BMP280;52034;51.926;6.320;2023-03-15T02:17:10;101089.50;;;3.69
58102;BMP280;52034;51.926;6.320;2023-03-15T02:18:12;101100.59;;;3.69
58102;BMP280;52034;51.926;6.320;2023-03-15T02:19:28;101094.94;;;3.67
58102;BMP280;52034;51.926;6.320;2023-03-15T02:20:41;101103.38;;;3.69
58102;BMP280;52034;51.926;6.320;2023-03-15T02:21:52;101095.66;;;3.68
58102;BMP280;52034;51.926;6.320;2023-03-15T02:22:59;101101.34;;;3.70
58102;BMP280;52034;51.926;6.320;2023-03-15T02:25:17;101096.09;;;3.74
58102;BMP280;52034;51.926;6.320;2023-03-15T02:27:25;101098.00;;;3.71
58102;BMP280;52034;51.926;6.320;2023-03-15T02:28:28;101099.28;;;3.70
58102;BMP280;52034;51.926;6.320;2023-03-15T02:29:29;101096.25;;;3.66
58102;BMP280;52034;51.926;6.320;2023-03-15T02:30:29;101100.59;;;3.69
58102;BMP280;52034;51.926;6.320;2023-03-15T02:31:30;101097.69;;;3.67
58102;BMP280;52034;51.926;6.320;2023-03-15T02:32:36;101103.38;;;3.69
58102;BMP280;52034;51.926;6.320;2023-03-15T02:33:42;101103.53;;;3.71
58102;BMP280;52034;51.926;6.320;2023-03-15T02:34:42;101104.25;;;3.72
58102;BMP280;52034;51.926;6.320;2023-03-15T02:35:43;101104.84;;;3.70
58102;BMP280;52034;51.926;6.320;2023-03-15T02:36:45;101112.00;;;3.73
58102;BMP280;52034;51.926;6.320;2023-03-15T02:37:46;101109.38;;;3.75
58102;BMP280;52034;51.926;6.320;2023-03-15T02:38:47;101105.88;;;3.75
58102;BMP280;52034;51.926;6.320;2023-03-15T02:39:48;101109.38;;;3.75
58102;BMP280;52034;51.926;6.320;2023-03-15T02:40:51;101114.34;;;3.77
58102;BMP280;52034;51.926;6.320;2023-03-15T02:41:55;101106.91;;;3.79
58102;BMP280;52034;51.926;6.320;2023-03-15T02:42:59;101120.78;;;3.79
58102;BMP280;52034;51.926;6.320;2023-03-15T02:44:07;101110.25;;;3.78
58102;BMP280;52034;51.926;6.320;2023-03-15T02:45:09;101111.13;;;3.80
58102;BMP280;52034;51.926;6.320;2023-03-15T02:46:10;101115.38;;;3.81
58102;BMP280;52034;51.926;6.320;2023-03-15T02:47:17;101118.16;;;3.81
58102;BMP280;52034;51.926;6.320;2023-03-15T02:48:20;101117.25;;;3.79
58102;BMP280;52034;51.926;6.320;2023-03-15T02:49:22;101119.44;;;3.80
58102;BMP280;52034;51.926;6.320;2023-03-15T02:50:24;101116.69;;;3.80
58102;BMP280;52034;51.926;6.320;2023-03-15T02:51:27;101127.94;;;3.82
58102;BMP280;52034;51.926;6.320;2023-03-15T02:52:27;101125.91;;;3.83
58102;BMP280;52034;51.926;6.320;2023-03-15T02:53:29;101126.50;;;3.81
58102;BMP280;52034;51.926;6.320;2023-03-15T02:54:31;101130.72;;;3.82
58102;BMP280;52034;51.926;6.320;2023-03-15T02:55:33;101126.50;;;3.81
58102;BMP280;52034;51.926;6.320;2023-03-15T02:56:33;101137.88;;;3.85
58102;BMP280;52034;51.926;6.320;2023-03-15T02:57:36;101137.16;;;3.85
58102;BMP280;52034;51.926;6.320;2023-03-15T02:58:36;101134.38;;;3.85
58102;BMP280;52034;51.926;6.320;2023-03-15T02:59:37;101137.72;;;3.83
58102;BMP280;52034;51.926;6.320;2023-03-15T03:00:37;101139.63;;;3.81
58102;BMP280;52034;51.926;6.320;2023-03-15T03:01:38;101129.09;;;3.79
58102;BMP280;52034;51.926;6.320;2023-03-15T03:02:44;101137.44;;;3.79
58102;BMP280;52034;51.926;6.320;2023-03-15T03:03:46;101142.84;;;3.77
58102;BMP280;52034;51.926;6.320;2023-03-15T03:04:47;101134.78;;;3.72
58102;BMP280;52034;51.926;6.320;2023-03-15T03:05:47;101147.38;;;3.73
58102;BMP280;52034;51.926;6.320;2023-03-15T03:06:48;101153.81;;;3.75
58102;BMP280;52034;51.926;6.320;2023-03-15T03:07:53;101157.75;;;3.72
58102;BMP280;52034;51.926;6.320;2023-03-15T03:08:54;101155.41;;;3.69
58102;BMP280;52034;51.926;6.320;2023-03-15T03:09:55;101149.00;;;3.66
58102;BMP280;52034;51.926;6.320;2023-03-15T03:10:56;101155.72;;;3.63
58102;BMP280;52034;51.926;6.320;2023-03-15T03:11:56;101158.34;;;3.61
58102;BMP280;52034;51.926;6.320;2023-03-15T03:12:57;101154.41;;;3.64
58102;BMP280;52034;51.926;6.320;2023-03-15T03:14:04;101155.59;;;3.61
58102;BMP280;52034;51.926;6.320;2023-03-15T03:15:05;101164.50;;;3.60
58102;BMP280;52034;51.926;6.320;2023-03-15T03:16:06;101166.69;;;3.61
58102;BMP280;52034;51.926;6.320;2023-03-15T03:17:07;101175.91;;;3.64
58102;BMP280;52034;51.926;6.320;2023-03-15T03:18:07;101182.03;;;3.62
58102;BMP280;52034;51.926;6.320;2023-03-15T03:19:09;101176.19;;;3.58
58102;BMP280;52034;51.926;6.320;2023-03-15T03:20:12;101187.41;;;3.60
58102;BMP280;52034;51.926;6.320;2023-03-15T03:21:17;101183.75;;;3.58
58102;BMP280;52034;51.926;6.320;2023-03-15T03:22:18;101181.00;;;3.58
58102;BMP280;52034;51.926;6.320;2023-03-15T03:23:19;101184.34;;;3.56
58102;BMP280;52034;51.926;6.320;2023-03-15T03:24:20;101182.72;;;3.53
58102;BMP280;52034;51.926;6.320;2023-03-15T03:25:20;101181.41;;;3.54
58102;BMP280;52034;51.926;6.320;2023-03-15T03:26:21;101184.03;;;3.52
58102;BMP280;52034;51.926;6.320;2023-03-15T03:27:27;101181.09;;;3.50
58102;BMP280;52034;51.926;6.320;2023-03-15T03:28:30;101184.75;;;3.53
58102;BMP280;52034;51.926;6.320;2023-03-15T03:29:31;101195.16;;;3.52
58102;BMP280;52034;51.926;6.320;2023-03-15T03:30:34;101181.84;;;3.51
58102;BMP280;52034;51.926;6.320;2023-03-15T03:31:35;101198.81;;;3.55
58102;BMP280;52034;51.926;6.320;2023-03-15T03:32:36;101191.22;;;3.55
58102;BMP280;52034;51.926;6.320;2023-03-15T03:33:36;101201.00;;;3.56
58102;BMP280;52034;51.926;6.320;2023-03-15T03:34:36;101204.66;;;3.59
58102;BMP280;52034;51.926;6.320;2023-03-15T03:35:37;101193.25;;;3.55
58102;BMP280;52034;51.926;6.320;2023-03-15T03:36:37;101205.69;;;3.54
58102;BMP280;52034;51.926;6.320;2023-03-15T03:37:38;101201.41;;;3.53
58102;BMP280;52034;51.926;6.320;2023-03-15T03:38:47;101204.78;;;3.51
58102;BMP280;52034;51.926;6.320;2023-03-15T03:39:47;101206.09;;;3.50
58102;BMP280;52034;51.926;6.320;2023-03-15T03:40:49;101209.44;;;3.49
58102;BMP280;52034;51.926;6.320;2023-03-15T03:41:50;101215.56;;;3.47
58102;BMP280;52034;51.926;6.320;2023-03-15T03:42:50;101218.34;;;3.47
58102;BMP280;52034;51.926;6.320;2023-03-15T03:43:52;101218.34;;;3.47
58102;BMP280;52034;51.926;6.320;2023-03-15T03:44:54;101211.50;;;3.48
58102;BMP280;52034;51.926;6.320;2023-03-15T03:45:55;101207.41;;;3.49
58102;BMP280;52034;51.926;6.320;2023-03-15T03:46:55;101217.06;;;3.48
58102;BMP280;52034;51.926;6.320;2023-03-15T03:47:56;101217.78;;;3.49
58102;BMP280;52034;51.926;6.320;2023-03-15T03:48:56;101228.31;;;3.50
58102;BMP280;52034;51.926;6.320;2023-03-15T03:49:57;101226.97;;;3.51
58102;BMP280;52034;51.926;6.320;2023-03-15T03:50:57;101218.50;;;3.49
58102;BMP280;52034;51.926;6.320;2023-03-15T03:51:58;101215.88;;;3.51
58102;BMP280;52034;51.926;6.320;2023-03-15T03:53:01;101223.63;;;3.53
58102;BMP280;52034;51.926;6.320;2023-03-15T03:54:06;101218.22;;;3.55
58102;BMP280;52034;51.926;6.320;2023-03-15T03:55:07;101229.03;;;3.51
58102;BMP280;52034;51.926;6.320;2023-03-15T03:56:07;101226.41;;;3.53
58102;BMP280;52034;51.926;6.320;2023-03-15T03:57:09;101222.34;;;3.54
58102;BMP280;52034;51.926;6.320;2023-03-15T03:58:10;101221.44;;;3.51
58102;BMP280;52034;51.926;6.320;2023-03-15T03:59:18;101226.25;;;3.51
58102;BMP280;52034;51.926;6.320;2023-03-15T04:00:27;101233.84;;;3.50
58102;BMP280;52034;51.926;6.320;2023-03-15T04:01:27;101225.53;;;3.50
58102;BMP280;52034;51.926;6.320;2023-03-15T04:02:28;101233.84;;;3.50
58102;BMP280;52034;51.926;6.320;2023-03-15T04:03:35;101241.47;;;3.50
58102;BMP280;52034;51.926;6.320;2023-03-15T04:04:50;101237.19;;;3.49
58102;BMP280;52034;51.926;6.320;2023-03-15T04:05:54;101237.94;;;3.49
58102;BMP280;52034;51.926;6.320;2023-03-15T04:06:57;101251.81;;;3.49
58102;BMP280;52034;51.926;6.320;2023-03-15T04:08:06;101247.44;;;3.46
58102;BMP280;52034;51.926;6.320;2023-03-15T04:09:14;101248.88;;;3.47
58102;BMP280;52034;51.926;6.320;2023-03-15T04:10:17;101254.28;;;3.45
58102;BMP280;52034;51.926;6.320;2023-03-15T04:11:21;101257.22;;;3.47
58102;BMP280;52034;51.926;6.320;2023-03-15T04:12:29;101258.53;;;3.46
58102;BMP280;52034;51.926;6.320;2023-03-15T04:13:31;101255.91;;;3.48
58102;BMP280;52034;51.926;6.320;2023-03-15T04:14:34;101259.09;;;3.45
58102;BMP280;52034;51.926;6.320;2023-03-15T04:15:36;101265.53;;;3.47
58102;BMP280;52034;51.926;6.320;2023-03-15T04:16:37;101273.28;;;3.49
58102;BMP280;52034;51.926;6.320;2023-03-15T04:17:41;101279.72;;;3.51
58102;BMP280;52034;51.926;6.320;2023-03-15T04:18:41;101278.25;;;3.50
58102;BMP280;52034;51.926;6.320;2023-03-15T04:19:41;101276.22;;;3.51
58102;BMP280;52034;51.926;6.320;2023-03-15T04:20:46;101279.88;;;3.53
58102;BMP280;52034;51.926;6.320;2023-03-15T04:21:46;101283.25;;;3.52
58102;BMP280;52034;51.926;6.320;2023-03-15T04:22:54;101280.63;;;3.54
58102;BMP280;52034;51.926;6.320;2023-03-15T04:23:54;101286.75;;;3.52
58102;BMP280;52034;51.926;6.320;2023-03-15T04:25:19;101276.06;;;3.49
58102;BMP280;52034;51.926;6.320;2023-03-15T04:26:46;101282.66;;;3.53
58102;BMP280;52034;51.926;6.320;2023-03-15T04:28:09;101286.59;;;3.50
58102;BMP280;52034;51.926;6.320;2023-03-15T04:29:21;101281.63;;;3.49
58102;BMP280;52034;51.926;6.320;2023-03-15T04:30:50;101287.16;;;3.49
58102;BMP280;52034;51.926;6.320;2023-03-15T04:32:06;101284.84;;;3.45
58102;BMP280;52034;51.926;6.320;2023-03-15T04:33:27;101284.09;;;3.45
58102;BMP280;52034;51.926;6.320;2023-03-15T04:35:00;101289.06;;;3.46
58102;BMP280;52034;51.926;6.320;2023-03-15T04:36:17;101287.47;;;3.43
58102;BMP280;52034;51.926;6.320;2023-03-15T04:37:36;101298.97;;;3.40
58102;BMP280;52034;51.926;6.320;2023-03-15T04:38:55;101298.97;;;3.40
58102;BMP280;52034;51.926;6.320;2023-03-15T04:40:18;101306.59;;;3.39
58102;BMP280;52034;51.926;6.320;2023-03-15T04:41:28;101298.69;;;3.36
58102;BMP280;52034;51.926;6.320;2023-03-15T04:42:37;101299.25;;;3.34
58102;BMP280;52034;51.926;6.320;2023-03-15T04:43:50;101310.34;;;3.34
58102;BMP280;52034;51.926;6.320;2023-03-15T04:45:10;101309.47;;;3.32
58102;BMP280;52034;51.926;6.320;2023-03-15T04:46:31;101308.00;;;3.31
58102;BMP280;52034;51.926;6.320;2023-03-15T04:47:54;101306.38;;;3.28
58102;BMP280;52034;51.926;6.320;2023-03-15T04:49:00;101311.50;;;3.31
58102;BMP280;52034;51.926;6.320;2023-03-15T04:50:21;101305.25;;;3.31
58102;BMP280;52034;51.926;6.320;2023-03-15T04:51:34;101312.25;;;3.32
58102;BMP280;52034;51.926;6.320;2023-03-15T04:52:51;101315.00;;;3.32
58102;BMP280;52034;51.926;6.320;2023-03-15T04:54:10;101321.16;;;3.30
58102;BMP280;52034;51.926;6.320;2023-03-15T04:55:48;101315.84;;;3.25
58102;BMP280;52034;51.926;6.320;2023-03-15T04:56:55;101322.28;;;3.27
58102;BMP280;52034;51.926;6.320;2023-03-15T04:58:14;101323.44;;;3.24
58102;BMP280;52034;51.926;6.320;2023-03-15T04:59:47;101319.03;;;3.21
58102;BMP280;52034;51.926;6.320;2023-03-15T05:01:06;101320.34;;;3.20
58102;BMP280;52034;51.926;6.320;2023-03-15T05:02:29;101314.81;;;3.20
58102;BMP280;52034;51.926;6.320;2023-03-15T05:03:48;101320.34;;;3.20
58102;BMP280;52034;51.926;6.320;2023-03-15T05:05:04;101315.41;;;3.19
58102;BMP280;52034;51.926;6.320;2023-03-15T05:06:17;101321.66;;;3.19
58102;BMP280;52034;51.926;6.320;2023-03-15T05:07:36;101328.53;;;3.18
58102;BMP280;52034;51.926;6.320;2023-03-15T05:08:56;101332.06;;;3.19
58102;BMP280;52034;51.926;6.320;2023-03-15T05:10:17;101331.16;;;3.16
58102;BMP280;52034;51.926;6.320;2023-03-15T05:11:38;101340.06;;;3.15
58102;BMP280;52034;51.926;6.320;2023-03-15T05:12:57;101333.78;;;3.14
58102;BMP280;52034;51.926;6.320;2023-03-15T05:14:12;101330.13;;;3.12
58102;BMP280;52034;51.926;6.320;2023-03-15T05:15:33;101337.88;;;3.13
58102;BMP280;52034;51.926;6.320;2023-03-15T05:16:47;101334.22;;;3.11
58102;BMP280;52034;51.926;6.320;2023-03-15T05:18:17;101331.84;;;3.07
58102;BMP280;52034;51.926;6.320;2023-03-15T05:19:36;101334.78;;;3.09
58102;BMP280;52034;51.926;6.320;2023-03-15T05:21:08;101346.75;;;3.12
58102;BMP280;52034;51.926;6.320;2023-03-15T05:22:27;101348.78;;;3.11
58102;BMP280;52034;51.926;6.320;2023-03-15T05:23:57;101355.22;;;3.14
58102;BMP280;52034;51.926;6.320;2023-03-15T05:25:29;101357.44;;;3.15
58102;BMP280;52034;51.926;6.320;2023-03-15T05:26:49;101351.31;;;3.17
58102;BMP280;52034;51.926;6.320;2023-03-15T05:28:13;101352.78;;;3.18
58102;BMP280;52034;51.926;6.320;2023-03-15T05:29:21;101360.50;;;3.19
58102;BMP280;52034;51.926;6.320;2023-03-15T05:30:56;101364.00;;;3.20
58102;BMP280;52034;51.926;6.320;2023-03-15T05:32:10;101362.56;;;3.19
58102;BMP280;52034;51.926;6.320;2023-03-15T05:33:30;101366.94;;;3.22
58102;BMP280;52034;51.926;6.320;2023-03-15T05:35:00;101375.44;;;3.24
58102;BMP280;52034;51.926;6.320;2023-03-15T05:36:30;101381.72;;;3.24
58102;BMP280;52034;51.926;6.320;2023-03-15T05:37:46;101380.25;;;3.23
58102;BMP280;52034;51.926;6.320;2023-03-15T05:39:04;101386.19;;;3.20
58102;BMP280;52034;51.926;6.320;2023-03-15T05:40:21;101379.38;;;3.21
58102;BMP280;52034;51.926;6.320;2023-03-15T05:41:29;101385.63;;;3.21
58102;BMP280;52034;51.926;6.320;2023-03-15T05:42:43;101391.34;;;3.23
58102;BMP280;52034;51.926;6.320;2023-03-15T05:43:59;101393.38;;;3.23
58102;BMP280;52034;51.926;6.320;2023-03-15T05:45:09;101394.28;;;3.25
58102;BMP280;52034;51.926;6.320;2023-03-15T05:46:25;101395.59;;;3.24
58102;BMP280;52034;51.926;6.320;2023-03-15T05:47:58;101405.53;;;3.27
58102;BMP280;52034;51.926;6.320;2023-03-15T05:49:13;101403.44;;;3.18
58102;BMP280;52034;51.926;6.320;2023-03-15T05:50:29;101400.25;;;3.22
58102;BMP280;52034;51.926;6.320;2023-03-15T05:51:47;101408.88;;;3.26
58102;BMP280;52034;51.926;6.320;2023-03-15T05:53:11;101403.50;;;3.28
58102;BMP280;52034;51.926;6.320;2023-03-15T05:54:18;101405.41;;;3.25
58102;BMP280;52034;51.926;6.320;2023-03-15T05:55:37;101400.72;;;3.28
58102;BMP280;52034;51.926;6.320;2023-03-15T05:56:56;101407.16;;;3.30
58102;BMP280;52034;51.926;6.320;2023-03-15T05:58:25;101397.22;;;3.27
58102;BMP280;52034;51.926;6.320;2023-03-15T05:59:49;101410.69;;;3.31
58102;BMP280;52034;51.926;6.320;2023-03-15T06:01:07;101404.00;;;3.34
58102;BMP280;52034;51.926;6.320;2023-03-15T06:02:27;101401.94;;;3.34
58102;BMP280;52034;51.926;6.320;2023-03-15T06:03:44;101406.03;;;3.33
58102;BMP280;52034;51.926;6.320;2023-03-15T06:04:52;101407.91;;;3.31
58102;BMP280;52034;51.926;6.320;2023-03-15T06:05:57;101407.47;;;3.34
58102;BMP280;52034;51.926;6.320;2023-03-15T06:07:07;101410.69;;;3.31
58102;BMP280;52034;51.926;6.320;2023-03-15T06:08:07;101408.06;;;3.33
58102;BMP280;52034;51.926;6.320;2023-03-15T06:09:12;101413.78;;;3.35
58102;BMP280;52034;51.926;6.320;2023-03-15T06:10:13;101417.13;;;3.33
58102;BMP280;52034;51.926;6.320;2023-03-15T06:11:13;101411.56;;;3.33
58102;BMP280;52034;51.926;6.320;2023-03-15T06:12:14;101416.22;;;3.31
58102;BMP280;52034;51.926;6.320;2023-03-15T06:13:15;101421.78;;;3.31
58102;BMP280;52034;51.926;6.320;2023-03-15T06:14:15;101419.31;;;3.35
58102;BMP280;52034;51.926;6.320;2023-03-15T06:15:25;101423.41;;;3.34
58102;BMP280;52034;51.926;6.320;2023-03-15T06:16:27;101419.91;;;3.33
58102;BMP280;52034;51.926;6.320;2023-03-15T06:17:30;101427.06;;;3.36
58102;BMP280;52034;51.926;6.320;2023-03-15T06:18:30;101420.38;;;3.39
58102;BMP280;52034;51.926;6.320;2023-03-15T06:19:30;101423.72;;;3.38
58102;BMP280;52034;51.926;6.320;2023-03-15T06:20:31;101430.16;;;3.40
58102;BMP280;52034;51.926;6.320;2023-03-15T06:21:37;101431.63;;;3.41
58102;BMP280;52034;51.926;6.320;2023-03-15T06:22:43;101439.38;;;3.43
58102;BMP280;52034;51.926;6.320;2023-03-15T06:23:56;101436.59;;;3.43
58102;BMP280;52034;51.926;6.320;2023-03-15T06:24:56;101433.22;;;3.44
58102;BMP280;52034;51.926;6.320;2023-03-15T06:25:57;101432.38;;;3.42